createdAt,value
2022-12-08T00:01:22.125Z,6.686
2022-12-08T00:03:21.709Z,6.686
2022-12-08T00:05:21.115Z,6.686
2022-12-08T00:06:21.156Z,6.686
2022-12-08T00:07:20.671Z,6.686
2022-12-08T00:08:21.769Z,6.686
2022-12-08T00:09:21.976Z,6.686
2022-12-08T00:10:57.222Z,6.686
2022-12-08T00:11:21.533Z,6.686
2022-12-08T00:13:21.189Z,6.686
2022-12-08T00:14:21.101Z,6.686
2022-12-08T00:15:20.930Z,6.686
2022-12-08T00:17:21.168Z,6.686
2022-12-08T00:18:21.241Z,6.686
2022-12-08T00:19:21.169Z,6.686
2022-12-08T00:20:21.456Z,6.686
2022-12-08T00:21:21.490Z,6.686
2022-12-08T00:23:21.845Z,6.686
2022-12-08T00:24:21.754Z,6.686
2022-12-08T00:25:21.605Z,6.676
2022-12-08T00:27:21.503Z,6.662
2022-12-08T00:28:20.667Z,6.662
2022-12-08T00:29:25.485Z,6.635
2022-12-08T00:31:21.367Z,6.625
2022-12-08T00:32:21.089Z,6.625
2022-12-08T00:33:20.589Z,6.662
2022-12-08T00:35:20.880Z,6.669
2022-12-08T00:36:21.199Z,6.686
2022-12-08T00:37:21.482Z,6.625
2022-12-08T00:39:21.588Z,6.649
2022-12-08T00:41:22.027Z,6.637
2022-12-08T00:43:21.047Z,6.660
2022-12-08T00:44:21.959Z,6.649
2022-12-08T00:45:22.475Z,6.625
2022-12-08T00:47:24.828Z,6.625
2022-12-08T00:48:21.320Z,6.625
2022-12-08T00:49:21.477Z,6.625
2022-12-08T00:51:21.879Z,6.625
2022-12-08T00:52:21.348Z,6.625
2022-12-08T00:53:20.793Z,6.625
2022-12-08T00:55:21.586Z,6.625
2022-12-08T00:57:21.245Z,6.625
2022-12-08T00:58:21.379Z,6.625
2022-12-08T00:59:21.211Z,6.625
2022-12-08T01:00:50.556Z,6.625
2022-12-08T01:01:25.352Z,6.625
2022-12-08T01:03:22.539Z,6.625
2022-12-08T01:04:21.630Z,6.625
2022-12-08T01:05:22.120Z,6.625
2022-12-08T01:06:21.241Z,6.625
2022-12-08T01:07:21.188Z,6.625
2022-12-08T01:09:21.905Z,6.625
2022-12-08T01:11:22.323Z,6.625
2022-12-08T01:13:21.540Z,6.625
2022-12-08T01:15:21.816Z,6.625
2022-12-08T01:17:20.978Z,6.625
2022-12-08T01:19:22.118Z,6.625
2022-12-08T01:20:21.572Z,6.625
2022-12-08T01:21:22.009Z,6.625
2022-12-08T01:23:21.600Z,6.625
2022-12-08T01:25:21.869Z,6.625
2022-12-08T01:26:21.658Z,6.625
2022-12-08T01:27:21.537Z,6.625
2022-12-08T01:28:21.729Z,6.625
2022-12-08T01:29:22.114Z,6.625
2022-12-08T01:31:21.404Z,6.614
2022-12-08T01:32:21.650Z,6.625
2022-12-08T01:33:21.855Z,6.625
2022-12-08T01:34:21.065Z,6.625
2022-12-08T01:35:20.569Z,6.625
2022-12-08T01:36:21.671Z,6.625
2022-12-08T01:37:21.944Z,6.625
2022-12-08T01:38:21.570Z,6.583
2022-12-08T01:39:21.514Z,6.561
2022-12-08T01:40:21.399Z,6.593
2022-12-08T01:41:21.244Z,6.625
2022-12-08T01:43:21.075Z,6.625
2022-12-08T01:45:21.501Z,6.625
2022-12-08T01:47:21.291Z,6.614
2022-12-08T01:48:21.157Z,6.583
2022-12-08T01:49:21.067Z,6.625
2022-12-08T01:50:20.910Z,6.625
2022-12-08T01:51:21.302Z,6.625
2022-12-08T01:52:20.858Z,6.625
2022-12-08T01:53:21.628Z,6.614
2022-12-08T01:55:21.140Z,6.593
2022-12-08T01:56:20.582Z,6.572
2022-12-08T01:57:20.557Z,6.572
2022-12-08T01:58:21.261Z,6.572
2022-12-08T01:59:21.409Z,6.593
2022-12-08T02:01:21.919Z,6.593
2022-12-08T02:03:21.878Z,6.625
2022-12-08T02:05:21.839Z,6.614
2022-12-08T02:07:21.362Z,6.599
2022-12-08T02:09:21.726Z,6.625
2022-12-08T02:11:21.407Z,6.625
2022-12-08T02:13:22.115Z,6.625
2022-12-08T02:15:21.431Z,6.625
2022-12-08T02:16:21.492Z,6.625
2022-12-08T02:17:21.306Z,6.625
2022-12-08T02:18:21.591Z,6.625
2022-12-08T02:19:39.575Z,6.625
2022-12-08T02:20:21.990Z,6.625
2022-12-08T02:21:21.455Z,6.625
2022-12-08T02:23:21.781Z,6.625
2022-12-08T02:25:21.937Z,6.625
2022-12-08T02:27:21.327Z,6.625
2022-12-08T02:28:21.492Z,6.625
2022-12-08T02:29:21.429Z,6.625
2022-12-08T02:31:21.534Z,6.625
2022-12-08T02:33:22.293Z,6.625
2022-12-08T02:35:21.672Z,6.625
2022-12-08T02:37:21.544Z,6.625
2022-12-08T02:39:21.998Z,6.625
2022-12-08T02:40:21.492Z,6.625
2022-12-08T02:41:21.905Z,6.625
2022-12-08T02:43:22.044Z,6.635
2022-12-08T02:44:21.438Z,6.656
2022-12-08T02:45:30.071Z,6.666
2022-12-08T02:46:21.703Z,6.666
2022-12-08T02:47:30.044Z,6.686
2022-12-08T02:48:21.496Z,6.686
2022-12-08T02:49:22.201Z,6.686
2022-12-08T02:51:21.822Z,6.686
2022-12-08T02:53:22.450Z,6.686
2022-12-08T02:55:21.910Z,6.686
2022-12-08T02:57:21.629Z,6.686
2022-12-08T02:58:21.448Z,6.686
2022-12-08T02:59:21.349Z,6.686
2022-12-08T03:01:21.563Z,6.686
2022-12-08T03:02:21.714Z,6.686
2022-12-08T03:03:40.677Z,6.686
2022-12-08T03:05:22.139Z,6.686
2022-12-08T03:06:21.042Z,6.686
2022-12-08T03:07:20.939Z,6.686
2022-12-08T03:09:21.438Z,6.686
2022-12-08T03:10:21.539Z,6.686
2022-12-08T03:11:21.981Z,6.686
2022-12-08T03:12:21.116Z,6.686
2022-12-08T03:13:21.422Z,6.686
2022-12-08T03:15:22.027Z,6.686
2022-12-08T03:16:21.357Z,6.686
2022-12-08T03:17:21.335Z,6.686
2022-12-08T03:18:20.850Z,6.686
2022-12-08T03:19:21.347Z,6.686
2022-12-08T03:20:21.406Z,6.686
2022-12-08T03:21:21.497Z,6.686
2022-12-08T03:22:21.455Z,6.686
2022-12-08T03:23:21.381Z,6.686
2022-12-08T03:25:21.167Z,6.686
2022-12-08T03:27:21.957Z,6.686
2022-12-08T03:29:21.527Z,6.686
2022-12-08T03:30:22.381Z,6.686
2022-12-08T03:31:21.995Z,6.686
2022-12-08T03:33:21.501Z,6.686
2022-12-08T03:34:21.376Z,6.686
2022-12-08T03:35:21.635Z,6.686
2022-12-08T03:36:21.277Z,6.686
2022-12-08T03:37:20.651Z,6.697
2022-12-08T03:39:19.441Z,6.718
2022-12-08T03:40:22.117Z,6.737
2022-12-08T03:41:21.067Z,6.714
2022-12-08T03:43:21.544Z,6.724
2022-12-08T03:45:21.367Z,6.686
2022-12-08T03:47:21.278Z,6.714
2022-12-08T03:48:21.042Z,6.686
2022-12-08T03:49:20.766Z,6.714
2022-12-08T03:51:21.344Z,6.686
2022-12-08T03:53:21.177Z,6.697
2022-12-08T03:54:21.429Z,6.686
2022-12-08T03:55:21.693Z,6.724
2022-12-08T03:57:21.511Z,6.737
2022-12-08T03:59:20.712Z,6.75
2022-12-08T04:01:22.162Z,6.75
2022-12-08T04:03:22.061Z,6.75
2022-12-08T04:04:20.835Z,6.75
2022-12-08T04:05:22.024Z,6.739
2022-12-08T04:06:20.477Z,6.739
2022-12-08T04:07:21.165Z,6.75
2022-12-08T04:09:21.677Z,6.75
2022-12-08T04:10:21.529Z,6.75
2022-12-08T04:11:20.935Z,6.75
2022-12-08T04:13:21.423Z,6.75
2022-12-08T04:15:21.874Z,6.75
2022-12-08T04:17:21.080Z,6.75
2022-12-08T04:18:20.984Z,6.75
2022-12-08T04:19:21.118Z,6.75
2022-12-08T04:20:21.562Z,6.75
2022-12-08T04:21:22.012Z,6.75
2022-12-08T04:22:21.454Z,6.75
2022-12-08T04:23:21.865Z,6.75
2022-12-08T04:24:21.433Z,6.75
2022-12-08T04:25:20.369Z,6.75
2022-12-08T04:26:20.977Z,6.75
2022-12-08T04:27:22.208Z,6.75
2022-12-08T04:28:21.282Z,6.75
2022-12-08T04:29:21.494Z,6.75
2022-12-08T04:30:21.601Z,6.75
2022-12-08T04:31:21.667Z,6.75
2022-12-08T04:32:22.105Z,6.75
2022-12-08T04:33:21.125Z,6.75
2022-12-08T04:34:21.089Z,6.75
2022-12-08T04:35:20.990Z,6.75
2022-12-08T04:37:21.435Z,6.75
2022-12-08T04:38:21.748Z,6.75
2022-12-08T04:39:21.853Z,6.75
2022-12-08T04:40:21.976Z,6.75
2022-12-08T04:41:22.067Z,6.75
2022-12-08T04:42:21.434Z,6.75
2022-12-08T04:43:21.880Z,6.75
2022-12-08T04:45:22.427Z,6.75
2022-12-08T04:46:20.901Z,6.75
2022-12-08T04:47:22.191Z,6.75
2022-12-08T04:49:21.031Z,6.75
2022-12-08T04:51:21.885Z,6.75
2022-12-08T04:53:22.256Z,6.75
2022-12-08T04:55:21.076Z,6.75
2022-12-08T04:56:21.453Z,6.75
2022-12-08T04:57:22.159Z,6.75
2022-12-08T04:58:21.266Z,6.75
2022-12-08T04:59:21.729Z,6.75
2022-12-08T05:01:22.575Z,6.75
2022-12-08T05:03:28.346Z,6.75
2022-12-08T05:05:21.528Z,6.75
2022-12-08T05:06:21.706Z,6.75
2022-12-08T05:07:21.271Z,6.75
2022-12-08T05:09:21.960Z,6.75
2022-12-08T05:11:21.427Z,6.75
2022-12-08T05:13:21.429Z,6.75
2022-12-08T05:15:22.012Z,6.75
2022-12-08T05:16:34.726Z,6.75
2022-12-08T05:17:21.994Z,6.75
2022-12-08T05:18:21.749Z,6.75
2022-12-08T05:19:21.999Z,6.75
2022-12-08T05:20:21.136Z,6.75
2022-12-08T05:21:21.526Z,6.75
2022-12-08T05:23:21.937Z,6.762
2022-12-08T05:25:21.632Z,6.75
2022-12-08T05:26:21.853Z,6.770
2022-12-08T05:27:22.031Z,6.787
2022-12-08T05:28:49.211Z,6.75
2022-12-08T05:29:21.514Z,6.75
2022-12-08T05:31:22.769Z,6.760
2022-12-08T05:33:22.121Z,6.781
2022-12-08T05:35:22.032Z,6.760
2022-12-08T05:37:22.007Z,6.781
2022-12-08T05:38:35.798Z,6.781
2022-12-08T05:39:22.174Z,6.791
2022-12-08T05:40:21.756Z,6.760
2022-12-08T05:41:22.174Z,6.801
2022-12-08T05:42:43.382Z,6.770
2022-12-08T05:43:21.580Z,6.770
2022-12-08T05:45:22.274Z,6.811
2022-12-08T05:47:21.463Z,6.811
2022-12-08T05:48:20.901Z,6.811
2022-12-08T05:49:22.312Z,6.811
2022-12-08T05:50:21.644Z,6.811
2022-12-08T05:51:22.027Z,6.811
2022-12-08T05:52:21.098Z,6.811
2022-12-08T05:53:20.937Z,6.811
2022-12-08T05:55:21.642Z,6.811
2022-12-08T05:57:20.955Z,6.811
2022-12-08T05:59:44.700Z,6.811
2022-12-08T06:00:23.743Z,6.811
2022-12-08T06:01:21.766Z,6.781
2022-12-08T06:03:22.314Z,6.811
2022-12-08T06:05:22.063Z,6.811
2022-12-08T06:06:21.573Z,6.811
2022-12-08T06:07:24.063Z,6.811
2022-12-08T06:08:21.044Z,6.811
2022-12-08T06:09:21.142Z,6.811
2022-12-08T06:10:21.582Z,6.811
2022-12-08T06:11:21.660Z,6.811
2022-12-08T06:12:21.627Z,6.811
2022-12-08T06:13:22.329Z,6.811
2022-12-08T06:14:21.529Z,6.811
2022-12-08T06:15:21.961Z,6.811
2022-12-08T06:17:21.634Z,6.811
2022-12-08T06:19:21.833Z,6.811
2022-12-08T06:21:23.162Z,6.811
2022-12-08T06:22:21.850Z,6.811
2022-12-08T06:23:22.024Z,6.811
2022-12-08T06:24:20.454Z,6.811
2022-12-08T06:25:21.783Z,6.811
2022-12-08T06:27:21.392Z,6.811
2022-12-08T06:28:20.888Z,6.811
2022-12-08T06:29:21.593Z,6.811
2022-12-08T06:30:21.862Z,6.811
2022-12-08T06:31:21.425Z,6.811
2022-12-08T06:32:27.101Z,6.811
2022-12-08T06:33:21.461Z,6.811
2022-12-08T06:34:21.060Z,6.811
2022-12-08T06:35:21.401Z,6.811
2022-12-08T06:37:21.605Z,6.811
2022-12-08T06:39:21.526Z,6.811
2022-12-08T06:41:21.095Z,6.811
2022-12-08T06:42:20.622Z,6.811
2022-12-08T06:43:21.445Z,6.811
2022-12-08T06:44:21.227Z,6.811
2022-12-08T06:45:21.932Z,6.811
2022-12-08T06:47:25.963Z,6.811
2022-12-08T06:48:21.400Z,6.811
2022-12-08T06:49:21.168Z,6.811
2022-12-08T06:50:21.623Z,6.811
2022-12-08T06:51:21.592Z,6.811
2022-12-08T06:52:21.653Z,6.811
2022-12-08T06:53:21.708Z,6.811
2022-12-08T06:54:21.646Z,6.811
2022-12-08T06:55:59.206Z,6.811
2022-12-08T06:57:21.655Z,6.811
2022-12-08T06:59:21.348Z,6.811
2022-12-08T07:01:22.230Z,6.811
2022-12-08T07:02:21.605Z,6.811
2022-12-08T07:03:22.017Z,6.811
2022-12-08T07:04:20.908Z,6.811
2022-12-08T07:05:22.594Z,6.811
2022-12-08T07:06:20.902Z,6.811
2022-12-08T07:07:21.814Z,6.811
2022-12-08T07:08:22.087Z,6.811
2022-12-08T07:09:21.311Z,6.811
2022-12-08T07:11:29.266Z,6.811
2022-12-08T07:12:20.920Z,6.811
2022-12-08T07:13:22.215Z,6.811
2022-12-08T07:15:21.716Z,6.811
2022-12-08T07:16:21.986Z,6.811
2022-12-08T07:17:21.133Z,6.811
2022-12-08T07:18:21.123Z,6.811
2022-12-08T07:19:21.942Z,6.811
2022-12-08T07:21:28.330Z,6.811
2022-12-08T07:22:21.919Z,6.811
2022-12-08T07:23:22.730Z,6.811
2022-12-08T07:25:21.670Z,6.811
2022-12-08T07:27:26.363Z,6.811
2022-12-08T07:28:21.198Z,6.811
2022-12-08T07:29:26.065Z,6.811
2022-12-08T07:31:22.741Z,6.811
2022-12-08T07:33:21.868Z,6.811
2022-12-08T07:35:23.037Z,6.811
2022-12-08T07:36:21.843Z,6.811
2022-12-08T07:37:21.965Z,6.811
2022-12-08T07:39:26.848Z,6.811
2022-12-08T07:41:23.477Z,6.811
2022-12-08T07:42:22.305Z,6.811
2022-12-08T07:43:21.443Z,6.822
2022-12-08T07:44:21.755Z,6.811
2022-12-08T07:45:25.689Z,6.811
2022-12-08T07:46:21.624Z,6.811
2022-12-08T07:47:22.185Z,6.811
2022-12-08T07:48:21.193Z,6.811
2022-12-08T07:49:21.515Z,6.811
2022-12-08T07:50:22.004Z,6.811
2022-12-08T07:51:21.666Z,6.811
2022-12-08T07:52:21.605Z,6.811
2022-12-08T07:53:21.862Z,6.811
2022-12-08T07:55:21.520Z,6.811
2022-12-08T07:56:21.918Z,6.811
2022-12-08T07:57:22.416Z,6.811
2022-12-08T07:58:22.019Z,6.811
2022-12-08T07:59:35.581Z,6.811
2022-12-08T08:01:22.495Z,6.811
2022-12-08T08:02:33.289Z,6.811
2022-12-08T08:03:21.780Z,6.811
2022-12-08T08:05:22.349Z,6.811
2022-12-08T08:06:21.492Z,6.811
2022-12-08T08:07:21.703Z,6.811
2022-12-08T08:08:22.439Z,6.811
2022-12-08T08:09:22.553Z,6.811
2022-12-08T08:10:22.603Z,6.811
2022-12-08T08:11:29.751Z,6.811
2022-12-08T08:12:39.595Z,6.811
2022-12-08T08:13:22.258Z,6.811
2022-12-08T08:14:21.523Z,6.833
2022-12-08T08:15:22.672Z,6.811
2022-12-08T08:17:21.999Z,6.811
2022-12-08T08:18:21.237Z,6.811
2022-12-08T08:19:21.540Z,6.811
2022-12-08T08:21:53.349Z,6.811
2022-12-08T08:22:21.508Z,6.811
2022-12-08T08:23:21.443Z,6.811
2022-12-08T08:24:21.234Z,6.811
2022-12-08T08:25:21.459Z,6.843
2022-12-08T08:26:20.864Z,6.822
2022-12-08T08:27:21.855Z,6.811
2022-12-08T08:28:21.622Z,6.811
2022-12-08T08:29:21.418Z,6.811
2022-12-08T08:30:28.439Z,6.811
2022-12-08T08:31:21.496Z,6.811
2022-12-08T08:32:21.737Z,6.824
2022-12-08T08:33:22.136Z,6.811
2022-12-08T08:34:21.421Z,6.811
2022-12-08T08:35:21.470Z,6.811
2022-12-08T08:37:21.419Z,6.811
2022-12-08T08:38:21.858Z,6.811
2022-12-08T08:39:22.412Z,6.811
2022-12-08T08:40:21.937Z,6.811
2022-12-08T08:41:21.577Z,6.811
2022-12-08T08:42:21.682Z,6.811
2022-12-08T08:43:21.753Z,6.811
2022-12-08T08:45:21.733Z,6.811
2022-12-08T08:46:21.599Z,6.811
2022-12-08T08:47:21.645Z,6.811
2022-12-08T08:48:21.667Z,6.811
2022-12-08T08:49:21.543Z,6.811
2022-12-08T08:52:21.681Z,6.811
2022-12-08T08:53:21.691Z,6.811
2022-12-08T08:55:21.407Z,6.811
2022-12-08T08:56:21.257Z,6.811
2022-12-08T08:57:25.475Z,6.811
2022-12-08T08:58:20.789Z,6.811
2022-12-08T08:59:22.057Z,6.811
2022-12-08T09:00:22.221Z,6.811
2022-12-08T09:01:21.605Z,6.811
2022-12-08T09:03:21.928Z,6.811
2022-12-08T09:04:21.514Z,6.811
2022-12-08T09:05:21.665Z,6.811
2022-12-08T09:06:21.851Z,6.811
2022-12-08T09:07:21.960Z,6.811
2022-12-08T09:09:21.418Z,6.811
2022-12-08T09:11:21.277Z,6.811
2022-12-08T09:12:21.963Z,6.811
2022-12-08T09:13:21.838Z,6.811
2022-12-08T09:14:21.292Z,6.811
2022-12-08T09:15:21.810Z,6.811
2022-12-08T09:16:21.827Z,6.811
2022-12-08T09:17:22.472Z,6.811
2022-12-08T09:18:21.564Z,6.811
2022-12-08T09:19:21.741Z,6.811
2022-12-08T09:20:22.503Z,6.811
2022-12-08T09:21:21.893Z,6.801
2022-12-08T09:22:21.709Z,6.811
2022-12-08T09:23:21.393Z,6.811
2022-12-08T09:24:21.218Z,6.811
2022-12-08T09:25:21.474Z,6.811
2022-12-08T09:26:21.192Z,6.811
2022-12-08T09:27:21.470Z,6.811
2022-12-08T09:28:21.705Z,6.811
2022-12-08T09:29:21.852Z,6.811
2022-12-08T09:31:22.015Z,6.811
2022-12-08T09:32:21.397Z,6.811
2022-12-08T09:33:21.827Z,6.822
2022-12-08T09:34:21.449Z,6.833
2022-12-08T09:35:22.061Z,6.833
2022-12-08T09:36:22.221Z,6.875
2022-12-08T09:37:21.614Z,6.875
2022-12-08T09:38:21.743Z,6.875
2022-12-08T09:39:21.600Z,6.864
2022-12-08T09:41:22.198Z,6.875
2022-12-08T09:42:21.422Z,6.875
2022-12-08T09:43:21.210Z,5.599
2022-12-08T09:44:20.916Z,6.875
2022-12-08T09:45:22.637Z,6.875
2022-12-08T09:46:22.158Z,6.875
2022-12-08T09:47:21.811Z,6.864
2022-12-08T09:49:22.194Z,6.843
2022-12-08T09:50:22.040Z,6.875
2022-12-08T09:51:21.849Z,6.875
2022-12-08T09:52:27.538Z,6.811
2022-12-08T09:53:22.538Z,6.837
2022-12-08T09:55:21.325Z,6.811
2022-12-08T09:57:21.553Z,6.848
2022-12-08T09:59:21.590Z,6.862
2022-12-08T10:00:28.551Z,6.875
2022-12-08T10:01:22.073Z,6.824
2022-12-08T10:03:24.589Z,6.875
2022-12-08T10:04:21.271Z,6.875
2022-12-08T10:05:22.275Z,6.875
2022-12-08T10:06:35.033Z,6.864
2022-12-08T10:07:20.759Z,6.864
2022-12-08T10:09:29.571Z,6.875
2022-12-08T10:10:36.516Z,6.833
2022-12-08T10:11:22.053Z,6.811
2022-12-08T10:13:22.488Z,6.875
2022-12-08T10:15:21.745Z,6.864
2022-12-08T10:16:30.455Z,6.875
2022-12-08T10:17:22.029Z,6.875
2022-12-08T10:18:21.890Z,6.875
2022-12-08T10:19:21.979Z,6.833
2022-12-08T10:20:21.881Z,6.875
2022-12-08T10:21:22.848Z,6.875
2022-12-08T10:23:22.668Z,6.875
2022-12-08T10:24:22.036Z,6.875
2022-12-08T10:25:22.229Z,6.875
2022-12-08T10:26:21.083Z,6.875
2022-12-08T10:27:21.527Z,6.875
2022-12-08T10:29:22.450Z,6.875
2022-12-08T10:31:22.654Z,6.875
2022-12-08T10:33:23.641Z,6.885
2022-12-08T10:34:22.461Z,6.885
2022-12-08T10:35:22.635Z,6.875
2022-12-08T10:37:22.480Z,6.875
2022-12-08T10:39:21.982Z,6.875
2022-12-08T10:41:22.533Z,6.875
2022-12-08T10:42:22.138Z,6.875
2022-12-08T10:43:23.019Z,6.875
2022-12-08T10:44:21.066Z,6.875
2022-12-08T10:45:20.989Z,6.875
2022-12-08T10:46:48.461Z,6.875
2022-12-08T10:47:21.663Z,6.875
2022-12-08T10:48:21.710Z,6.916
2022-12-08T10:49:21.477Z,6.926
2022-12-08T10:51:22.302Z,6.875
2022-12-08T10:52:22.206Z,6.885
2022-12-08T10:53:22.280Z,6.875
2022-12-08T10:54:29.825Z,6.928
2022-12-08T10:55:22.916Z,6.936
2022-12-08T10:57:23.153Z,6.936
2022-12-08T10:58:22.027Z,6.936
2022-12-08T10:59:22.408Z,6.936
2022-12-08T11:01:22.340Z,6.936
2022-12-08T11:02:22.744Z,6.936
2022-12-08T11:03:21.905Z,6.936
2022-12-08T11:04:22.125Z,6.936
2022-12-08T11:05:22.214Z,6.936
2022-12-08T11:06:21.819Z,6.936
2022-12-08T11:07:21.951Z,6.936
2022-12-08T11:08:22.281Z,6.936
2022-12-08T11:09:22.112Z,6.936
2022-12-08T11:10:21.495Z,6.936
2022-12-08T11:11:27.527Z,6.936
2022-12-08T11:12:22.772Z,6.936
2022-12-08T11:13:22.509Z,6.936
2022-12-08T11:14:22.350Z,6.936
2022-12-08T11:15:22.310Z,6.936
2022-12-08T11:17:22.463Z,6.947
2022-12-08T11:18:22.172Z,6.936
2022-12-08T11:19:22.104Z,6.936
2022-12-08T11:20:22.165Z,6.936
2022-12-08T11:21:21.627Z,6.936
2022-12-08T11:23:21.932Z,6.936
2022-12-08T11:25:22.545Z,6.936
2022-12-08T11:26:22.025Z,6.936
2022-12-08T11:27:21.757Z,6.936
2022-12-08T11:29:21.921Z,6.936
2022-12-08T11:31:21.439Z,6.936
2022-12-08T11:33:22.200Z,6.936
2022-12-08T11:34:21.636Z,6.936
2022-12-08T11:35:22.273Z,6.936
2022-12-08T11:36:22.024Z,6.936
2022-12-08T11:37:21.844Z,6.936
2022-12-08T11:38:30.522Z,6.936
2022-12-08T11:39:21.921Z,6.936
2022-12-08T11:41:24.859Z,6.949
2022-12-08T11:43:22.141Z,6.958
2022-12-08T11:45:22.588Z,6.936
2022-12-08T11:47:22.681Z,6.947
2022-12-08T11:48:22.860Z,6.936
2022-12-08T11:49:22.567Z,6.954
2022-12-08T11:50:27.907Z,6.989
2022-12-08T11:51:22.736Z,6.989
2022-12-08T11:52:22.386Z,6.958
2022-12-08T11:53:22.485Z,6.947
2022-12-08T11:54:21.889Z,6.936
2022-12-08T11:55:21.951Z,6.936
2022-12-08T11:56:22.128Z,6.968
2022-12-08T11:57:21.752Z,6.936
2022-12-08T11:58:22.104Z,6.936
2022-12-08T11:59:21.736Z,6.936
2022-12-08T12:01:22.711Z,6.936
2022-12-08T12:03:22.456Z,6.947
2022-12-08T12:04:22.065Z,6.947
2022-12-08T12:05:39.873Z,6.991
2022-12-08T12:06:54.565Z,6.936
2022-12-08T12:07:25.970Z,6.936
2022-12-08T12:08:21.991Z,6.936
2022-12-08T12:09:26.324Z,7
2022-12-08T12:11:27.689Z,6.936
2022-12-08T12:12:23.141Z,6.936
2022-12-08T12:13:26.998Z,6.947
2022-12-08T12:14:20.817Z,6.947
2022-12-08T12:15:22.191Z,6.989
2022-12-08T12:16:21.605Z,6.979
2022-12-08T12:17:27.022Z,7
2022-12-08T12:19:22.077Z,6.979
2022-12-08T12:20:21.948Z,7
2022-12-08T12:21:23.439Z,6.979
2022-12-08T12:23:30.103Z,6.989
2022-12-08T12:24:26.549Z,6.989
2022-12-08T12:25:22.520Z,7
2022-12-08T12:26:22.627Z,6.989
2022-12-08T12:27:22.329Z,6.936
2022-12-08T12:28:21.545Z,6.936
2022-12-08T12:29:26.667Z,6.947
2022-12-08T12:31:35.271Z,6.936
2022-12-08T12:32:21.987Z,6.936
2022-12-08T12:33:21.507Z,6.936
2022-12-08T12:34:22.104Z,6.936
2022-12-08T12:35:26.935Z,6.936
2022-12-08T12:36:21.548Z,6.936
2022-12-08T12:37:22.175Z,6.936
2022-12-08T12:38:20.949Z,6.936
2022-12-08T12:39:26.931Z,6.936
2022-12-08T12:40:22.265Z,6.936
2022-12-08T12:41:29.791Z,6.936
2022-12-08T12:43:29.425Z,6.936
2022-12-08T12:45:40.679Z,6.936
2022-12-08T12:47:21.627Z,6.936
2022-12-08T12:48:21.909Z,6.936
2022-12-08T12:49:21.999Z,6.936
2022-12-08T12:50:21.064Z,6.936
2022-12-08T12:51:21.358Z,6.936
2022-12-08T12:52:20.997Z,6.936
2022-12-08T12:53:22.118Z,6.936
2022-12-08T12:54:21.723Z,6.936
2022-12-08T12:55:36.490Z,6.936
2022-12-08T12:56:22.112Z,6.936
2022-12-08T12:57:21.990Z,6.936
2022-12-08T12:58:21.755Z,6.936
2022-12-08T12:59:21.695Z,6.947
2022-12-08T13:01:22.340Z,6.936
2022-12-08T13:02:21.946Z,6.936
2022-12-08T13:03:22.560Z,6.936
2022-12-08T13:04:21.567Z,6.936
2022-12-08T13:05:22.318Z,6.936
2022-12-08T13:07:21.344Z,6.936
2022-12-08T13:08:21.735Z,6.936
2022-12-08T13:09:21.835Z,6.936
2022-12-08T13:11:21.626Z,6.936
2022-12-08T13:12:21.580Z,6.936
2022-12-08T13:13:22.076Z,5.699
2022-12-08T13:14:21.681Z,6.958
2022-12-08T13:15:23.191Z,6.936
2022-12-08T13:16:27.975Z,6.936
2022-12-08T13:17:22.041Z,6.936
2022-12-08T13:18:21.315Z,6.936
2022-12-08T13:19:21.653Z,6.936
2022-12-08T13:21:22.154Z,6.936
2022-12-08T13:22:22.509Z,6.936
2022-12-08T13:23:22.400Z,6.936
2022-12-08T13:24:21.999Z,6.936
2022-12-08T13:25:22.071Z,6.936
2022-12-08T13:26:21.612Z,6.936
2022-12-08T13:27:22.535Z,6.936
2022-12-08T13:29:22.075Z,6.936
2022-12-08T13:31:22.277Z,6.936
2022-12-08T13:32:21.103Z,6.936
2022-12-08T13:33:27.191Z,6.936
2022-12-08T13:34:21.730Z,6.936
2022-12-08T13:35:22.169Z,6.936
2022-12-08T13:36:21.918Z,6.936
2022-12-08T13:37:22.568Z,6.936
2022-12-08T13:39:49.490Z,6.936
2022-12-08T13:40:22.537Z,6.936
2022-12-08T13:41:22.872Z,6.936
2022-12-08T13:43:21.895Z,6.947
2022-12-08T13:45:24.121Z,6.958
2022-12-08T13:47:16.777Z,6.936
2022-12-08T13:47:24.647Z,6.936
2022-12-08T13:48:13.592Z,6.936
2022-12-08T13:49:59.178Z,6.936
2022-12-08T13:51:24.148Z,6.936
2022-12-08T13:53:35.088Z,6.936
2022-12-08T13:55:35.469Z,6.936
2022-12-08T13:56:24.949Z,6.936
2022-12-08T13:57:10.653Z,6.936
2022-12-08T13:57:22.572Z,6.936
2022-12-08T13:58:21.641Z,6.936
2022-12-08T13:59:21.920Z,6.936
2022-12-08T14:01:22.390Z,6.936
2022-12-08T14:02:22.069Z,6.936
2022-12-08T14:03:21.451Z,6.936
2022-12-08T14:05:18.717Z,6.936
2022-12-08T14:06:03.373Z,6.936
2022-12-08T14:07:22.254Z,6.936
2022-12-08T14:09:00.035Z,6.936
2022-12-08T14:09:21.647Z,6.936
2022-12-08T14:10:21.440Z,6.936
2022-12-08T14:11:21.552Z,6.936
2022-12-08T14:13:22.299Z,6.936
2022-12-08T14:14:46.016Z,6.936
2022-12-08T14:15:22.039Z,6.936
2022-12-08T14:16:21.049Z,6.936
2022-12-08T14:17:22.001Z,6.936
2022-12-08T14:18:21.722Z,6.936
2022-12-08T14:19:21.941Z,6.936
2022-12-08T14:21:35.669Z,6.936
2022-12-08T14:22:21.504Z,6.936
2022-12-08T14:23:22.038Z,6.936
2022-12-08T14:25:21.785Z,6.936
2022-12-08T14:27:23.121Z,6.936
2022-12-08T14:28:20.899Z,6.936
2022-12-08T14:29:22.680Z,6.936
2022-12-08T14:31:21.736Z,6.936
2022-12-08T14:32:21.339Z,6.936
2022-12-08T14:33:22.476Z,6.936
2022-12-08T14:35:21.967Z,6.936
2022-12-08T14:37:22.104Z,6.936
2022-12-08T14:38:26.811Z,6.936
2022-12-08T14:40:09.377Z,6.936
2022-12-08T14:40:31.329Z,6.936
2022-12-08T14:41:22.320Z,6.936
2022-12-08T14:42:21.329Z,6.936
2022-12-08T14:43:21.201Z,6.936
2022-12-08T14:44:21.549Z,6.936
2022-12-08T14:45:22.701Z,6.936
2022-12-08T14:46:27.794Z,6.936
2022-12-08T14:47:22.455Z,6.936
2022-12-08T14:48:21.708Z,6.936
2022-12-08T14:49:22.284Z,6.936
2022-12-08T14:50:21.746Z,6.936
2022-12-08T14:51:21.629Z,6.936
2022-12-08T14:52:29.657Z,6.936
2022-12-08T14:53:21.712Z,6.936
2022-12-08T14:54:35.312Z,6.936
2022-12-08T14:55:21.974Z,6.936
2022-12-08T14:56:35.854Z,6.936
2022-12-08T14:58:36.165Z,6.936
2022-12-08T14:59:21.513Z,6.936
2022-12-08T15:01:21.414Z,6.958
2022-12-08T15:02:27.087Z,6.936
2022-12-08T15:03:21.462Z,6.936
2022-12-08T15:04:36.117Z,6.936
2022-12-08T15:05:22.248Z,6.936
2022-12-08T15:06:29.573Z,6.936
2022-12-08T15:07:24.863Z,6.936
2022-12-08T15:11:20.866Z,6.936
2022-12-08T15:12:26.149Z,6.936
2022-12-08T15:13:22.573Z,6.936
2022-12-08T15:14:21.769Z,6.936
2022-12-08T15:15:22.534Z,6.936
2022-12-08T15:16:41.597Z,6.936
2022-12-08T15:17:22.346Z,6.936
2022-12-08T15:18:22.071Z,6.936
2022-12-08T15:20:22.501Z,6.936
2022-12-08T15:21:23.733Z,6.936
2022-12-08T15:23:21.997Z,6.936
2022-12-08T15:24:21.858Z,6.936
2022-12-08T15:25:22.699Z,6.936
2022-12-08T15:27:21.797Z,6.936
2022-12-08T15:28:36.352Z,6.936
2022-12-08T15:29:21.534Z,6.936
2022-12-08T15:31:21.965Z,6.936
2022-12-08T15:32:40.421Z,6.936
2022-12-08T15:33:22.306Z,6.936
2022-12-08T15:34:21.134Z,6.936
2022-12-08T15:35:21.050Z,6.936
2022-12-08T15:36:20.732Z,6.936
2022-12-08T15:37:21.329Z,6.936
2022-12-08T15:38:21.144Z,6.936
2022-12-08T15:39:21.289Z,6.936
2022-12-08T15:40:21.979Z,6.936
2022-12-08T15:41:23.285Z,6.906
2022-12-08T15:43:20.869Z,6.916
2022-12-08T15:45:22.175Z,6.885
2022-12-08T15:46:22.414Z,6.926
2022-12-08T15:47:22.698Z,6.936
2022-12-08T15:49:22.596Z,6.875
2022-12-08T15:51:23.543Z,6.875
2022-12-08T15:53:22.802Z,6.895
2022-12-08T15:55:22.628Z,6.875
2022-12-08T15:56:41.199Z,6.885
2022-12-08T15:58:38.273Z,6.885
2022-12-08T15:58:54.593Z,6.906
2022-12-08T15:59:21.756Z,6.875
2022-12-08T16:00:59.164Z,6.906
2022-12-08T16:01:22.239Z,6.906
2022-12-08T16:02:49.182Z,6.895
2022-12-08T16:04:27.492Z,6.916
2022-12-08T16:05:44.294Z,6.895
2022-12-08T16:06:38.934Z,6.912
2022-12-08T16:07:20.876Z,6.919
2022-12-08T16:07:29.999Z,6.936
2022-12-08T16:09:11.124Z,6.901
2022-12-08T16:09:23.056Z,6.899
2022-12-08T16:12:19.762Z,6.875
2022-12-08T16:12:35.554Z,6.901
2022-12-08T16:14:42.032Z,6.875
2022-12-08T16:15:58.499Z,6.875
2022-12-08T16:15:59.618Z,6.875
2022-12-08T16:16:21.033Z,6.875
2022-12-08T16:17:21.129Z,6.885
2022-12-08T16:18:21.505Z,6.875
2022-12-08T16:19:21.929Z,6.875
2022-12-08T16:22:54.456Z,6.875
2022-12-08T16:23:26.346Z,6.875
2022-12-08T16:23:49.123Z,6.875
2022-12-08T16:24:20.814Z,6.875